Time;durP1;ratioP1;P1;durP2;ratioP2;P2;SDS_P1;SDS_P2;PMS_P1;PMS_P2;Temp;Humidity;BMP_temperature;BMP_pressure;BME280_temperature;BME280_humidity;BME280_pressure;Samples;Min_cycle;Max_cycle;Signal;HPM_P1;HPM_P2
2022/02/26 00:01:33;;;;;;;9.40;6.88;;;;;;;0.19;100.00;102717.75;6015693;23;20274;-65
2022/02/26 00:04:00;;;;;;;5.80;5.32;;;;;;;-0.17;100.00;102664.44;5994778;23;20131;-65
2022/02/26 00:06:26;;;;;;;3.20;3.10;;;;;;;0.18;100.00;102734.06;6021580;23;20034;-66
2022/02/26 00:08:53;;;;;;;4.35;4.15;;;;;;;0.16;100.00;102733.16;5999374;23;20087;-66
2022/02/26 00:11:19;;;;;;;3.35;3.15;;;;;;;-1.04;100.00;102531.66;6031649;23;20096;-66
2022/02/26 00:13:46;;;;;;;4.45;4.25;;;;;;;-0.21;100.00;102684.13;5995992;23;20041;-65
2022/02/26 00:16:13;;;;;;;3.10;3.00;;;;;;;0.17;100.00;102735.78;6036818;23;20081;-66
2022/02/26 00:18:41;;;;;;;3.63;3.47;;;;;;;0.33;100.00;102739.63;6005415;23;20037;-66
2022/02/26 00:21:08;;;;;;;2.60;2.50;;;;;;;0.01;100.00;102696.69;6026871;23;20014;-68
2022/02/26 00:23:35;;;;;;;3.03;2.92;;;;;;;-1.27;100.00;102471.81;6013739;23;20032;-70
2022/02/26 00:26:02;;;;;;;2.60;2.50;;;;;;;0.35;100.00;102762.91;6031596;23;20034;-68
2022/02/26 00:28:33;;;;;;;2.60;2.50;;;;;;;0.37;100.00;102751.75;6000263;23;20541;-68
2022/02/26 00:30:59;;;;;;;2.53;2.42;;;;;;;0.02;100.00;102703.56;6039112;23;21470;-68
2022/02/26 00:33:26;;;;;;;2.60;2.50;;;;;;;0.14;100.00;102725.41;6000416;23;20427;-68
2022/02/26 00:35:52;;;;;;;4.90;4.70;;;;;;;0.33;100.00;102765.44;5975747;23;20090;-67
2022/02/26 00:38:19;;;;;;;2.45;2.35;;;;;;;0.39;100.00;102775.03;6023101;23;20406;-66
2022/02/26 00:40:45;;;;;;;4.03;3.83;;;;;;;0.19;100.00;102752.19;5993624;23;20016;-66
2022/02/26 00:43:12;;;;;;;2.50;2.40;;;;;;;0.53;100.00;102785.69;6016632;23;20102;-65
2022/02/26 00:45:38;;;;;;;2.65;2.55;;;;;;;0.47;100.00;102778.69;6022563;23;20775;-64
2022/02/26 00:48:05;;;;;;;2.55;2.45;;;;;;;0.54;100.00;102787.44;6033141;23;20555;-66
2022/02/26 00:50:31;;;;;;;2.65;2.55;;;;;;;0.12;100.00;102755.47;5999052;23;20360;-66
2022/02/26 00:52:58;;;;;;;3.33;3.08;;;;;;;0.42;100.00;102764.78;6040838;23;20015;-66
2022/02/26 00:55:24;;;;;;;2.63;2.53;;;;;;;0.66;100.00;102797.19;6023210;23;20070;-65
2022/02/26 00:57:51;;;;;;;4.35;4.15;;;;;;;0.61;100.00;102794.50;6036971;23;20030;-66
2022/02/26 01:00:17;;;;;;;2.40;2.30;;;;;;;0.59;100.00;102804.78;5996309;23;20034;-67
2022/02/26 01:02:44;;;;;;;4.45;4.25;;;;;;;0.04;100.00;102704.47;5987405;23;20094;-66
2022/02/26 01:05:11;;;;;;;2.40;2.30;;;;;;;0.52;100.00;102773.59;6013209;23;20053;-66
2022/02/26 01:07:37;;;;;;;2.88;2.78;;;;;;;0.78;100.00;102811.25;5974863;23;20054;-67
2022/02/26 01:10:05;;;;;;;2.70;2.60;;;;;;;0.84;100.00;102804.47;6004866;23;20349;-67
2022/02/26 01:12:31;;;;;;;2.60;2.50;;;;;;;0.88;100.00;102804.59;6001603;23;20404;-67
2022/02/26 01:14:58;;;;;;;2.72;2.63;;;;;;;0.89;100.00;102810.63;5993020;23;20086;-66
2022/02/26 01:17:25;;;;;;;2.47;2.38;;;;;;;0.90;100.00;102807.19;6034848;23;20038;-66
2022/02/26 01:19:52;;;;;;;4.25;4.05;;;;;;;0.62;100.00;102751.44;6005155;23;20015;-67
2022/02/26 01:22:18;;;;;;;2.60;2.50;;;;;;;0.95;100.00;102803.00;6028633;23;20011;-66
2022/02/26 01:24:45;;;;;;;3.67;3.58;;;;;;;0.59;100.00;102744.50;6001332;23;20014;-69
2022/02/26 01:27:11;;;;;;;2.40;2.30;;;;;;;0.98;100.00;102806.53;6036837;23;20388;-66
2022/02/26 01:29:37;;;;;;;2.83;2.72;;;;;;;0.90;100.00;102800.31;5991061;23;20087;-66
2022/02/26 01:32:05;;;;;;;2.60;2.50;;;;;;;0.94;100.00;102807.31;5994604;23;20033;-66
2022/02/26 01:34:34;;;;;;;2.85;2.75;;;;;;;0.93;100.00;102821.06;6020381;23;20516;-66
2022/02/26 01:37:02;;;;;;;2.50;2.40;;;;;;;0.81;100.00;102805.28;6000033;23;20464;-66
2022/02/26 01:39:29;;;;;;;2.80;2.70;;;;;;;0.96;100.00;102815.06;6019126;23;20027;-67
2022/02/26 01:41:57;;;;;;;3.28;3.17;;;;;;;0.53;100.00;102741.78;5978356;23;20015;-66
2022/02/26 01:44:24;;;;;;;2.47;2.38;;;;;;;0.98;100.00;102822.03;6018452;23;20377;-67
2022/02/26 01:46:51;;;;;;;4.80;4.50;;;;;;;0.98;100.00;102827.22;6019307;23;20019;-67
2022/02/26 01:49:18;;;;;;;2.45;2.35;;;;;;;1.01;100.00;102821.22;6018793;23;20059;-66
2022/02/26 01:51:45;;;;;;;4.15;3.95;;;;;;;1.03;100.00;102829.88;6028049;23;20007;-65
2022/02/26 01:54:12;;;;;;;2.45;2.35;;;;;;;0.89;100.00;102787.38;6007040;23;20050;-64
2022/02/26 01:56:39;;;;;;;3.03;2.92;;;;;;;0.82;100.00;102767.38;6025475;23;20043;-66
2022/02/26 01:59:06;;;;;;;2.50;2.40;;;;;;;1.17;100.00;102818.13;5983115;23;20022;-65
2022/02/26 02:01:32;;;;;;;3.08;2.97;;;;;;;1.09;100.00;102811.91;6028394;23;20051;-66
2022/02/26 02:03:59;;;;;;;3.40;3.20;;;;;;;1.13;100.00;102831.84;5994338;23;20042;-66
2022/02/26 02:06:25;;;;;;;2.50;2.40;;;;;;;1.19;100.00;102839.72;6037423;23;20070;-66
2022/02/26 02:08:52;;;;;;;4.50;4.30;;;;;;;1.21;100.00;102836.31;6003281;23;20395;-65
2022/02/26 02:11:19;;;;;;;2.53;2.42;;;;;;;1.05;100.00;102802.34;6008949;23;20043;-65
2022/02/26 02:13:45;;;;;;;2.60;2.50;;;;;;;1.06;100.00;102801.50;6037616;23;20029;-66
2022/02/26 02:16:12;;;;;;;2.50;2.40;;;;;;;1.00;100.00;102793.63;6037535;23;20332;-66
2022/02/26 02:18:42;;;;;;;2.63;2.53;;;;;;;1.29;100.00;102829.56;6001241;23;20141;-68
2022/02/26 02:21:08;;;;;;;2.45;2.35;;;;;;;0.99;100.00;102790.16;6028079;23;20420;-66
2022/02/26 02:23:37;;;;;;;2.80;2.70;;;;;;;1.27;100.00;102839.03;6013689;23;20066;-66
2022/02/26 02:26:03;;;;;;;2.50;2.40;;;;;;;1.23;100.00;102845.84;6031372;23;20042;-67
2022/02/26 02:28:33;;;;;;;2.60;2.50;;;;;;;1.12;100.00;102819.75;5991778;23;20106;-66
2022/02/26 02:30:59;;;;;;;2.40;2.30;;;;;;;0.99;100.00;102802.22;6032889;23;20025;-66
2022/02/26 02:33:26;;;;;;;2.67;2.58;;;;;;;1.22;100.00;102844.06;6023058;23;20027;-66
2022/02/26 02:35:52;;;;;;;4.65;4.45;;;;;;;1.22;100.00;102866.47;5999782;23;20090;-66
2022/02/26 02:38:19;;;;;;;2.40;2.30;;;;;;;1.18;100.00;102845.75;6021697;23;20039;-67
2022/02/26 02:40:47;;;;;;;3.13;3.03;;;;;;;0.71;100.00;102783.53;6034101;23;20357;-66
2022/02/26 02:43:14;;;;;;;2.60;2.50;;;;;;;1.09;100.00;102842.94;6027510;23;20089;-66
2022/02/26 02:45:41;;;;;;;3.60;3.45;;;;;;;1.07;100.00;102841.19;5999878;23;20048;-66
2022/02/26 02:48:08;;;;;;;2.60;2.50;;;;;;;1.04;100.00;102847.13;6039292;23;20046;-66
2022/02/26 02:50:35;;;;;;;2.78;2.67;;;;;;;1.00;100.00;102847.91;6017989;23;20398;-66
2022/02/26 02:53:01;;;;;;;2.60;2.50;;;;;;;0.73;100.00;102807.69;6053543;23;20085;-66
2022/02/26 02:55:28;;;;;;;2.60;2.50;;;;;;;0.96;100.00;102853.84;6018688;23;20022;-66
2022/02/26 02:57:55;;;;;;;2.50;2.40;;;;;;;0.92;100.00;102860.69;6048232;23;20027;-66
2022/02/26 03:00:24;;;;;;;2.50;2.40;;;;;;;0.94;100.00;102868.47;6010510;23;20026;-66
2022/02/26 03:02:50;;;;;;;2.85;2.75;;;;;;;-0.54;100.00;102604.22;6035525;23;20713;-66
2022/02/26 03:05:21;;;;;;;2.50;2.40;;;;;;;0.87;100.00;102853.66;5982280;23;20031;-67
2022/02/26 03:07:49;;;;;;;2.78;2.67;;;;;;;0.87;100.00;102858.84;5999979;23;20011;-66
2022/02/26 03:10:16;;;;;;;2.60;2.50;;;;;;;0.59;100.00;102824.59;6034304;23;20007;-66
2022/02/26 03:12:49;;;;;;;3.90;3.72;;;;;;;0.73;100.00;102854.22;6011943;23;20025;-66
2022/02/26 03:15:16;;;;;;;2.60;2.50;;;;;;;0.71;100.00;102858.47;6023989;23;20025;-66
2022/02/26 03:17:43;;;;;;;4.38;4.18;;;;;;;0.42;100.00;102818.16;5997569;23;20295;-66
2022/02/26 03:20:09;;;;;;;3.13;3.03;;;;;;;0.60;100.00;102862.50;6013515;23;20030;-66
2022/02/26 03:22:37;;;;;;;3.30;3.10;;;;;;;0.24;100.00;102850.44;6026755;23;20039;-65
2022/02/26 03:25:04;;;;;;;2.90;2.80;;;;;;;0.43;100.00;102862.09;6012012;23;20064;-66
2022/02/26 03:27:31;;;;;;;2.63;2.53;;;;;;;0.35;100.00;102855.88;6025435;23;20361;-66
2022/02/26 03:29:57;;;;;;;2.80;2.70;;;;;;;0.07;100.00;102813.00;5995473;23;20015;-65
2022/02/26 03:32:24;;;;;;;2.92;2.83;;;;;;;0.24;100.00;102867.63;6032468;23;20031;-65
2022/02/26 03:34:51;;;;;;;4.18;3.97;;;;;;;0.18;100.00;102864.06;5992393;23;20047;-69
2022/02/26 03:37:18;;;;;;;2.50;2.40;;;;;;;0.12;100.00;102863.03;6033428;23;20280;-69
2022/02/26 03:39:44;;;;;;;4.05;3.88;;;;;;;0.05;100.00;102863.72;6003315;23;20098;-68
2022/02/26 03:42:11;;;;;;;2.40;2.30;;;;;;;-0.13;100.00;102852.06;6024743;23;20030;-69
2022/02/26 03:44:39;;;;;;;2.63;2.53;;;;;;;-0.07;100.00;102875.44;6008615;23;20011;-70
2022/02/26 03:47:06;;;;;;;2.75;2.65;;;;;;;-0.28;100.00;102849.06;6039919;23;20030;-67
2022/02/26 03:49:32;;;;;;;2.70;2.60;;;;;;;-0.22;100.00;102872.44;6051920;23;20570;-66
2022/02/26 03:51:59;;;;;;;2.60;2.50;;;;;;;-0.61;100.00;102837.84;6034668;23;20030;-70
2022/02/26 03:54:26;;;;;;;2.60;2.50;;;;;;;-0.66;100.00;102833.38;6033530;23;20017;-68
2022/02/26 03:56:54;;;;;;;4.03;3.85;;;;;;;-0.45;100.00;102887.28;6035579;23;20053;-70
2022/02/26 03:59:22;;;;;;;2.45;2.35;;;;;;;-0.77;100.00;102858.00;6025471;23;20029;-69
2022/02/26 04:01:49;;;;;;;4.40;4.20;;;;;;;-0.57;100.00;102874.91;6024745;23;20026;-69
2022/02/26 04:04:16;;;;;;;2.75;2.65;;;;;;;-0.61;100.00;102878.22;5993901;23;20051;-68
2022/02/26 04:06:42;;;;;;;3.60;3.47;;;;;;;-0.62;100.00;102882.53;6023322;23;20726;-69
2022/02/26 04:09:09;;;;;;;2.50;2.40;;;;;;;-0.67;100.00;102893.53;6026533;23;20023;-70
2022/02/26 04:11:36;;;;;;;2.80;2.70;;;;;;;-0.71;100.00;102886.53;5990199;23;20021;-69
2022/02/26 04:14:03;;;;;;;2.58;2.47;;;;;;;-0.78;100.00;102888.06;6025252;23;20019;-67
2022/02/26 04:16:29;;;;;;;2.63;2.53;;;;;;;-1.02;100.00;102849.53;6034054;23;20361;-69
2022/02/26 04:18:56;;;;;;;3.50;3.40;;;;;;;-0.84;100.00;102891.31;6005807;23;20929;-69
2022/02/26 04:21:23;;;;;;;2.58;2.47;;;;;;;-1.16;100.00;102843.06;6041311;23;20043;-67
2022/02/26 04:23:50;;;;;;;4.35;4.15;;;;;;;-0.92;100.00;102902.22;6036891;23;20018;-69
2022/02/26 04:26:17;;;;;;;2.63;2.53;;;;;;;-0.97;100.00;102899.50;5998563;23;20459;-69
2022/02/26 04:28:43;;;;;;;3.55;3.45;;;;;;;-1.03;100.00;102889.88;6039769;23;20014;-68
2022/02/26 04:31:10;;;;;;;2.53;2.42;;;;;;;-1.29;100.00;102858.13;6017040;23;20055;-69
2022/02/26 04:33:36;;;;;;;2.63;2.53;;;;;;;-1.17;100.00;102883.41;6031012;23;20022;-70
2022/02/26 04:36:03;;;;;;;2.72;2.63;;;;;;;-1.47;100.00;102840.41;6026662;23;20019;-65
2022/02/26 04:38:30;;;;;;;2.40;2.30;;;;;;;-1.13;100.00;102908.44;6002003;23;20020;-65
2022/02/26 04:40:58;;;;;;;3.90;3.75;;;;;;;-1.67;100.00;102829.44;6030647;23;20766;-66
2022/02/26 04:43:25;;;;;;;2.80;2.70;;;;;;;-1.19;100.00;102913.41;6017913;23;20618;-66
2022/02/26 04:45:53;;;;;;;4.57;4.38;;;;;;;-1.41;100.00;102886.94;6007240;23;20381;-66
2022/02/26 04:48:20;;;;;;;2.40;2.30;;;;;;;-1.56;100.00;102857.25;6031465;23;20088;-66
2022/02/26 04:50:46;;;;;;;5.05;4.75;;;;;;;-1.23;100.00;102922.72;6027103;23;20019;-66
2022/02/26 04:53:13;;;;;;;2.40;2.30;;;;;;;-1.28;100.00;102901.13;6045671;23;20120;-67
2022/02/26 04:55:40;;;;;;;2.53;2.42;;;;;;;-1.77;100.00;102787.94;6039786;23;20018;-65
2022/02/26 04:58:06;;;;;;;2.92;2.83;;;;;;;-1.30;100.00;102863.25;6023711;23;20025;-66
2022/02/26 05:00:33;;;;;;;2.60;2.50;;;;;;;-1.26;100.00;102871.13;6002424;23;20186;-64
2022/02/26 05:03:00;;;;;;;2.65;2.55;;;;;;;-1.39;100.00;102878.41;6022670;23;20046;-66
2022/02/26 05:05:27;;;;;;;2.50;2.40;;;;;;;-1.18;100.00;102919.44;6004405;23;20039;-65
2022/02/26 05:07:53;;;;;;;4.00;3.80;;;;;;;-1.25;100.00;102915.78;5991183;23;20082;-66
2022/02/26 05:10:20;;;;;;;2.70;2.60;;;;;;;-1.25;100.00;102921.81;6028266;23;20018;-65
2022/02/26 05:12:46;;;;;;;4.28;4.07;;;;;;;-1.33;100.00;102923.25;6007092;23;20034;-66
2022/02/26 05:15:13;;;;;;;18.35;17.45;;;;;;;-1.35;100.00;102924.03;5885538;23;21387;-64
2022/02/26 05:17:41;;;;;;;3.00;2.88;;;;;;;-1.54;100.00;102878.75;6020201;23;21048;-64
2022/02/26 05:20:09;;;;;;;2.25;2.15;;;;;;;-1.53;100.00;102865.09;6026431;23;20034;-66
2022/02/26 05:22:36;;;;;;;2.47;2.38;;;;;;;-1.53;100.00;102901.13;6031272;23;20069;-66
2022/02/26 05:25:06;;;;;;;2.97;2.85;;;;;;;-1.48;100.00;102899.59;6034757;23;20197;-65
2022/02/26 05:27:33;;;;;;;2.58;2.47;;;;;;;-1.59;100.00;102901.78;6022515;23;20018;-64
2022/02/26 05:29:59;;;;;;;3.30;3.20;;;;;;;-1.48;100.00;102930.50;6003090;23;20425;-67
2022/02/26 05:32:26;;;;;;;2.80;2.70;;;;;;;-1.45;100.00;102928.88;6018954;23;20483;-66
2022/02/26 05:34:52;;;;;;;4.18;3.97;;;;;;;-1.45;100.00;102933.16;6019609;23;20082;-67
2022/02/26 05:37:19;;;;;;;2.40;2.30;;;;;;;-1.50;100.00;102937.28;6025210;23;20029;-66
2022/02/26 05:39:47;;;;;;;4.22;4.03;;;;;;;-2.08;100.00;102846.97;6002095;23;20047;-67
2022/02/26 05:42:17;;;;;;;2.40;2.30;;;;;;;-1.58;100.00;102947.34;6008293;23;20031;-66
2022/02/26 05:44:43;;;;;;;3.95;3.75;;;;;;;-1.64;100.00;102953.13;6015260;23;20020;-67
2022/02/26 05:47:11;;;;;;;2.30;2.20;;;;;;;-1.92;100.00;102914.41;6032313;23;20043;-66
2022/02/26 05:49:37;;;;;;;2.75;2.63;;;;;;;-3.13;100.00;102711.25;6004338;23;20079;-65
2022/02/26 05:52:04;;;;;;;2.40;2.30;;;;;;;-2.10;100.00;102894.91;6012989;23;20138;-66
2022/02/26 05:54:31;;;;;;;2.30;2.20;;;;;;;-1.73;100.00;102965.69;6049781;23;20014;-67
2022/02/26 05:56:58;;;;;;;3.30;3.20;;;;;;;-1.73;100.00;102970.81;6020242;23;20031;-67
2022/02/26 05:59:25;;;;;;;2.20;2.10;;;;;;;-1.88;100.00;102966.03;6037222;23;20054;-65
2022/02/26 06:01:51;;;;;;;4.47;4.28;;;;;;;-1.74;100.00;102975.94;6019750;23;20038;-67
2022/02/26 06:04:18;;;;;;;2.30;2.20;;;;;;;-1.79;100.00;102987.75;5988369;23;20026;-65
2022/02/26 06:06:45;;;;;;;3.65;3.55;;;;;;;-2.22;100.00;102922.78;5997306;23;20211;-65
2022/02/26 06:09:11;;;;;;;3.95;3.75;;;;;;;-2.05;100.00;102952.53;6003784;23;20046;-65
2022/02/26 06:11:38;;;;;;;2.30;2.20;;;;;;;-1.85;100.00;102989.28;5993825;23;20054;-65
2022/02/26 06:14:04;;;;;;;2.40;2.30;;;;;;;-1.82;100.00;102991.97;6031164;23;20444;-66
2022/02/26 06:16:31;;;;;;;2.42;2.33;;;;;;;-1.77;100.00;102999.00;6000654;23;20019;-66
2022/02/26 06:18:57;;;;;;;3.30;3.20;;;;;;;-2.17;100.00;102921.22;6040794;23;20019;-65
2022/02/26 06:21:24;;;;;;;3.05;2.85;;;;;;;-1.77;100.00;102971.53;5975742;23;20094;-66
2022/02/26 06:23:50;;;;;;;4.25;4.05;;;;;;;-1.48;100.00;103010.31;6041959;23;20431;-65
2022/02/26 06:26:17;;;;;;;2.60;2.50;;;;;;;-1.83;100.00;102940.44;6037446;23;20035;-66
2022/02/26 06:28:43;;;;;;;3.58;3.47;;;;;;;-1.77;100.00;102934.63;5989484;23;20026;-66
2022/02/26 06:31:09;;;;;;;2.30;2.20;;;;;;;-1.27;100.00;103018.78;6029972;23;20018;-67
2022/02/26 06:33:36;;;;;;;2.30;2.20;;;;;;;-1.29;100.00;103009.25;6030534;23;20022;-67
2022/02/26 06:36:03;;;;;;;2.40;2.30;;;;;;;-1.44;100.00;102963.25;6026988;23;20156;-66
2022/02/26 06:38:29;;;;;;;2.40;2.30;;;;;;;-2.04;100.00;102845.38;5999082;23;20023;-66
2022/02/26 06:40:56;;;;;;;4.32;4.13;;;;;;;-0.98;100.00;103024.06;6032311;23;20117;-67
2022/02/26 06:43:22;;;;;;;2.30;2.20;;;;;;;-0.83;100.00;103036.56;6033306;23;20017;-66
2022/02/26 06:45:48;;;;;;;3.55;3.45;;;;;;;-0.98;100.00;103023.16;5996572;23;20213;-66
2022/02/26 06:48:15;;;;;;;2.50;2.40;;;;;;;-0.77;100.00;103018.69;6039087;23;20509;-66
2022/02/26 06:50:41;;;;;;;3.00;2.90;;;;;;;-0.58;100.00;103042.50;6025031;23;20030;-66
2022/02/26 06:53:08;;;;;;;2.60;2.50;;;;;;;-0.64;100.00;103020.00;6010737;23;20077;-67
2022/02/26 06:55:34;;;;;;;2.70;2.60;;;;;;;-0.58;100.00;103021.84;6030721;23;20362;-67
2022/02/26 06:58:01;;;;;;;3.22;3.03;;;;;;;-0.30;100.00;103051.97;5985771;23;20082;-66
2022/02/26 07:00:29;;;;;;;2.40;2.30;;;;;;;-0.39;100.00;103028.47;6024157;23;20029;-67
2022/02/26 07:02:56;;;;;;;4.65;4.45;;;;;;;-0.15;100.00;103051.56;6000347;23;20030;-66
2022/02/26 07:05:23;;;;;;;2.53;2.42;;;;;;;-0.24;100.00;103034.09;6001524;23;20253;-66
2022/02/26 07:07:49;;;;;;;4.43;4.22;;;;;;;-0.61;100.00;102960.75;6032545;23;20026;-67
2022/02/26 07:10:16;;;;;;;4.35;4.15;;;;;;;-0.10;100.00;103037.97;6026533;23;20036;-67
2022/02/26 07:12:42;;;;;;;3.30;3.20;;;;;;;0.15;100.00;103085.16;6024464;23;20002;-67
2022/02/26 07:15:09;;;;;;;2.72;2.63;;;;;;;-0.02;100.00;103054.56;6025471;23;20385;-66
2022/02/26 07:17:37;;;;;;;2.78;2.67;;;;;;;0.20;100.00;103081.00;5992943;23;20093;-66
2022/02/26 07:20:05;;;;;;;2.70;2.60;;;;;;;0.25;100.00;103088.91;6031933;23;20029;-66
2022/02/26 07:22:31;;;;;;;3.03;2.92;;;;;;;0.30;100.00;103088.19;6022699;23;20046;-66
2022/02/26 07:24:58;;;;;;;2.78;2.67;;;;;;;0.40;100.00;103091.91;6002343;23;20334;-66
2022/02/26 07:27:24;;;;;;;2.55;2.45;;;;;;;0.42;100.00;103079.03;6026432;23;20441;-67
2022/02/26 07:29:51;;;;;;;4.30;4.10;;;;;;;0.60;100.00;103092.47;5984795;23;20403;-66
2022/02/26 07:32:17;;;;;;;3.55;3.38;;;;;;;0.65;100.00;103084.84;6014985;23;20187;-66
2022/02/26 07:34:44;;;;;;;3.50;3.40;;;;;;;0.58;100.00;103052.78;5990371;23;20011;-66
2022/02/26 07:37:11;;;;;;;2.70;2.60;;;;;;;0.52;100.00;103039.69;6022595;23;20082;-67
2022/02/26 07:39:37;;;;;;;3.03;2.92;;;;;;;0.84;100.00;103091.38;6037949;23;20017;-66
2022/02/26 07:42:04;;;;;;;2.70;2.60;;;;;;;0.87;100.00;103104.41;6027109;23;20019;-67
2022/02/26 07:44:30;;;;;;;2.70;2.60;;;;;;;0.94;100.00;103107.19;5991513;23;20168;-66
2022/02/26 07:46:57;;;;;;;2.70;2.60;;;;;;;1.05;100.00;103089.38;6011383;23;20019;-66
2022/02/26 07:49:23;;;;;;;3.55;3.25;;;;;;;1.05;100.00;103104.88;6039775;23;20076;-66
2022/02/26 07:51:50;;;;;;;5.45;5.15;;;;;;;0.61;100.00;103027.03;6031579;23;20037;-66
2022/02/26 07:54:16;;;;;;;2.72;2.63;;;;;;;0.62;100.00;103004.66;6034352;23;20054;-67
2022/02/26 07:56:43;;;;;;;4.40;4.20;;;;;;;0.78;100.00;103011.97;6007077;23;20191;-66
2022/02/26 07:59:10;;;;;;;3.10;3.00;;;;;;;1.18;100.00;103080.19;6020867;23;20369;-66
2022/02/26 08:01:36;;;;;;;3.20;3.10;;;;;;;1.47;100.00;103111.13;6025668;23;20070;-66
2022/02/26 08:04:03;;;;;;;2.90;2.80;;;;;;;1.56;100.00;103112.22;5972600;23;20454;-66
2022/02/26 08:06:30;;;;;;;2.80;2.70;;;;;;;1.35;100.00;103071.16;6024459;23;20023;-67
2022/02/26 08:08:56;;;;;;;3.00;2.90;;;;;;;1.31;100.00;103113.31;5976230;23;20023;-66
2022/02/26 08:11:28;;;;;;;3.80;3.67;;;;;;;1.60;100.00;103110.56;6004207;23;20107;-66
2022/02/26 08:13:55;;;;;;;2.97;2.88;;;;;;;1.75;100.00;103123.00;6038175;23;20015;-67
2022/02/26 08:16:24;;;;;;;2.75;2.65;;;;;;;1.81;100.00;103125.72;6017341;23;20051;-68
2022/02/26 08:18:52;;;;;;;3.15;3.05;;;;;;;1.93;100.00;103133.78;5976083;23;20266;-66
2022/02/26 08:21:20;;;;;;;2.90;2.80;;;;;;;2.06;100.00;103123.69;6021250;23;20022;-66
2022/02/26 08:23:48;;;;;;;4.18;3.97;;;;;;;2.07;100.00;103120.28;6022645;23;20091;-66
2022/02/26 08:26:16;;;;;;;3.15;3.05;;;;;;;2.09;100.00;103127.22;5990047;23;20133;-67
2022/02/26 08:28:43;;;;;;;3.85;3.65;;;;;;;2.14;100.00;103096.25;6018725;23;20064;-67
2022/02/26 08:31:09;;;;;;;3.20;3.10;;;;;;;2.50;100.00;103126.34;5966123;23;20007;-68
2022/02/26 08:33:36;;;;;;;2.80;2.70;;;;;;;1.28;100.00;102947.66;6019300;23;20030;-65
2022/02/26 08:36:03;;;;;;;2.80;2.70;;;;;;;2.17;100.00;103091.13;5986719;23;20085;-66
2022/02/26 08:38:29;;;;;;;2.92;2.83;;;;;;;2.15;100.00;103070.38;6019389;23;20189;-66
2022/02/26 08:40:56;;;;;;;4.95;4.75;;;;;;;2.60;100.00;103125.69;5984128;23;20575;-66
2022/02/26 08:43:24;;;;;;;3.10;3.00;;;;;;;2.35;100.00;103068.19;6008363;23;20011;-66
2022/02/26 08:45:50;;;;;;;4.95;4.75;;;;;;;2.89;100.00;103133.19;5978083;23;20028;-68
2022/02/26 08:48:18;;;;;;;4.45;4.22;;;;;;;1.41;100.00;102881.56;6020255;23;20019;-66
2022/02/26 08:50:45;;;;;;;4.55;4.35;;;;;;;3.02;100.00;103122.19;5979877;23;20247;-65
2022/02/26 08:53:11;;;;;;;3.97;3.78;;;;;;;3.36;100.00;103135.75;5993677;23;20023;-66
2022/02/26 08:55:38;;;;;;;3.00;2.90;;;;;;;3.18;100.00;103080.09;5971328;23;20019;-66
2022/02/26 08:58:05;;;;;;;3.30;3.20;;;;;;;3.68;100.00;103138.00;6019944;23;21132;-67
2022/02/26 09:00:31;;;;;;;4.07;3.88;;;;;;;2.66;100.00;102949.53;6011876;23;20023;-66
2022/02/26 09:02:58;;;;;;;3.92;3.72;;;;;;;3.62;100.00;103114.53;5982009;23;20434;-66
2022/02/26 09:05:25;;;;;;;3.40;3.30;;;;;;;3.89;100.00;103142.66;6028422;23;20033;-65
2022/02/26 09:07:52;;;;;;;5.68;5.43;;;;;;;3.66;100.00;103070.47;5993096;23;20086;-67
2022/02/26 09:10:18;;;;;;;3.00;2.90;;;;;;;4.29;100.00;103135.41;6026038;23;20393;-67
2022/02/26 09:12:45;;;;;;;5.25;4.95;;;;;;;4.62;100.00;103147.13;6010403;23;20014;-66
2022/02/26 09:15:12;;;;;;;3.33;3.22;;;;;;;4.22;100.00;103116.28;5998891;23;20098;-66
2022/02/26 09:17:38;;;;;;;3.55;3.45;;;;;;;4.31;97.58;103113.81;6022225;23;20018;-66
2022/02/26 09:20:05;;;;;;;3.25;3.15;;;;;;;4.49;94.61;103136.56;6026645;23;20899;-66
2022/02/26 09:22:33;;;;;;;3.10;3.00;;;;;;;4.43;91.46;103146.00;6017338;23;20022;-66
2022/02/26 09:25:00;;;;;;;4.38;4.18;;;;;;;4.39;90.14;103130.38;6013963;23;20016;-67
2022/02/26 09:27:26;;;;;;;3.45;3.35;;;;;;;4.51;89.56;103108.84;6009382;23;20038;-66
2022/02/26 09:29:53;;;;;;;5.15;4.95;;;;;;;4.91;89.60;103124.91;5992367;23;20082;-67
2022/02/26 09:32:19;;;;;;;3.55;3.45;;;;;;;4.86;86.20;103157.81;6027649;23;20519;-68
2022/02/26 09:34:46;;;;;;;4.90;4.60;;;;;;;4.52;86.20;103147.00;6002270;23;20393;-67
2022/02/26 09:37:15;;;;;;;3.08;2.97;;;;;;;3.37;84.62;102980.06;6022613;23;20026;-66
2022/02/26 09:39:42;;;;;;;4.70;4.50;;;;;;;4.11;86.23;103084.97;6035629;23;20229;-66
2022/02/26 09:42:09;;;;;;;3.35;3.25;;;;;;;4.48;85.48;103167.75;6026291;23;20448;-66
2022/02/26 09:44:36;;;;;;;4.20;4.00;;;;;;;4.48;86.66;103170.34;6000278;23;20039;-67
2022/02/26 09:47:03;;;;;;;3.58;3.45;;;;;;;4.68;87.44;103168.00;6027901;23;20038;-66
2022/02/26 09:49:29;;;;;;;4.90;4.50;;;;;;;4.96;86.70;103164.84;6007411;23;20025;-67
2022/02/26 09:51:58;;;;;;;4.00;3.80;;;;;;;5.31;84.84;103160.84;6026959;23;20093;-68
2022/02/26 09:54:24;;;;;;;3.60;3.50;;;;;;;5.55;85.76;103160.19;6040000;23;20239;-66
2022/02/26 09:56:52;;;;;;;5.57;5.28;;;;;;;5.51;84.80;103138.50;6024194;23;20021;-66
2022/02/26 09:59:21;;;;;;;3.65;3.50;;;;;;;5.87;83.05;103159.56;6031643;23;20050;-67
2022/02/26 10:02:06;;;;;;;5.28;4.80;;;;;;;6.09;81.42;103127.59;6016718;23;20054;-67
2022/02/26 10:04:35;;;;;;;4.55;4.25;;;;;;;6.34;79.60;103170.34;6031472;23;20015;-66
2022/02/26 10:07:13;;;;;;;3.70;3.60;;;;;;;5.93;79.01;103150.09;5997810;23;20392;-66
2022/02/26 10:09:41;;;;;;;4.57;4.32;;;;;;;5.88;78.61;103162.19;6028337;23;20019;-66
2022/02/26 10:12:29;;;;;;;3.95;3.75;;;;;;;5.88;79.60;103161.34;6020022;23;20027;-67
2022/02/26 10:14:58;;;;;;;5.15;4.95;;;;;;;5.63;79.47;103188.91;5997754;23;20079;-67
2022/02/26 10:17:31;;;;;;;3.65;3.53;;;;;;;5.59;79.96;103170.69;6015001;23;20031;-67
2022/02/26 10:20:12;;;;;;;4.78;4.55;;;;;;;5.50;80.22;103165.38;6008396;23;20012;-66
2022/02/26 10:22:52;;;;;;;4.82;4.63;;;;;;;5.57;80.11;103137.63;6023329;23;20022;-66
2022/02/26 10:25:26;;;;;;;4.47;4.18;;;;;;;6.27;80.12;103191.16;6046780;23;20099;-66
2022/02/26 10:27:56;;;;;;;5.38;5.15;;;;;;;6.32;76.77;103143.38;5988885;23;20031;-66
2022/02/26 10:30:28;;;;;;;7.53;4.20;;;;;;;6.62;76.38;103160.03;6022341;23;20523;-66
2022/02/26 10:33:08;;;;;;;5.15;4.95;;;;;;;6.47;73.55;103160.81;5986542;23;20239;-66
2022/02/26 10:35:48;;;;;;;4.20;4.00;;;;;;;6.74;74.26;103160.09;6023894;23;20042;-66
2022/02/26 10:38:23;;;;;;;3.70;3.50;;;;;;;6.78;74.62;103155.75;6020796;23;20078;-66
2022/02/26 10:41:08;;;;;;;6.13;5.82;;;;;;;6.75;73.58;103156.59;5984590;23;20036;-66
2022/02/26 10:43:57;;;;;;;3.78;3.58;;;;;;;6.48;73.16;103161.72;6023593;23;20051;-66
2022/02/26 10:46:28;;;;;;;4.80;4.50;;;;;;;6.52;73.24;103150.44;5983809;23;20280;-66
2022/02/26 10:49:12;;;;;;;6.05;5.75;;;;;;;6.38;73.25;103130.38;5986620;23;20086;-65
2022/02/26 10:51:41;;;;;;;3.85;3.70;;;;;;;6.86;73.58;103155.78;6018382;23;20031;-66
2022/02/26 10:54:10;;;;;;;4.07;3.90;;;;;;;7.13;72.24;103153.19;6005285;23;20481;-66
2022/02/26 10:56:40;;;;;;;4.38;4.18;;;;;;;6.98;70.08;103147.97;6018980;23;20470;-66
2022/02/26 10:59:08;;;;;;;5.05;4.75;;;;;;;7.50;70.20;103150.66;5979390;23;20027;-66
2022/02/26 11:01:38;;;;;;;4.60;4.40;;;;;;;7.70;69.69;103147.16;6017906;23;20015;-67
2022/02/26 11:04:05;;;;;;;4.80;4.50;;;;;;;7.83;67.65;103148.00;6013348;23;20047;-66
2022/02/26 11:06:33;;;;;;;4.00;3.80;;;;;;;7.96;68.15;103147.13;5976447;23;20035;-66
2022/02/26 11:09:00;;;;;;;4.20;4.00;;;;;;;7.67;67.64;103137.56;5991089;23;20379;-65
2022/02/26 11:11:26;;;;;;;5.00;4.60;;;;;;;7.60;68.18;103125.38;6019433;23;20034;-66
2022/02/26 11:13:55;;;;;;;5.95;5.65;;;;;;;7.49;68.47;103124.50;5991658;23;20054;-65
2022/02/26 11:16:23;;;;;;;4.40;4.20;;;;;;;7.38;67.87;103093.19;6012468;23;20029;-66
2022/02/26 11:18:57;;;;;;;5.63;5.32;;;;;;;7.29;67.69;103129.72;6027534;23;20026;-66
2022/02/26 11:21:24;;;;;;;3.60;3.50;;;;;;;6.69;68.18;103083.50;6023012;23;20333;-67
2022/02/26 11:23:51;;;;;;;5.28;5.07;;;;;;;6.70;67.99;103079.19;6010598;23;20011;-66
2022/02/26 11:26:20;;;;;;;4.00;3.80;;;;;;;6.69;67.27;103090.47;5996678;23;20162;-66